Time;durP1;ratioP1;P1;durP2;ratioP2;P2;SDS_P1;SDS_P2;PMS_P1;PMS_P2;Temp;Humidity;BMP_temperature;BMP_pressure;BME280_temperature;BME280_humidity;BME280_pressure;Samples;Min_cycle;Max_cycle;Signal;HPM_P1;HPM_P2
2021/12/18 00:03:12;;;;;;;11.40;4.10;;;;;;;5.14;65.40;100457.48;214840;1311;139226;-63
2021/12/18 00:08:15;;;;;;;12.40;4.20;;;;;;;5.15;65.32;100464.67;212349;1325;139549;-59
2021/12/18 00:13:18;;;;;;;10.80;3.80;;;;;;;5.11;65.41;100479.17;211993;1324;139331;-58
2021/12/18 00:18:22;;;;;;;10.40;4.20;;;;;;;5.11;65.25;100498.34;212395;1326;140564;-59
2021/12/18 00:23:26;;;;;;;10.90;3.80;;;;;;;5.11;65.35;100499.93;212085;1328;138633;-64
2021/12/18 00:28:29;;;;;;;9.00;3.90;;;;;;;5.08;65.42;100506.49;212192;1322;141443;-62
2021/12/18 00:33:33;;;;;;;10.30;3.60;;;;;;;5.05;65.48;100512.70;212119;1325;138475;-62
2021/12/18 00:38:38;;;;;;;10.00;4.20;;;;;;;5.02;65.48;100506.76;212156;1323;139060;-58
2021/12/18 00:49:05;;;;;;;10.40;3.70;;;;;;;5.02;65.27;100521.36;212274;1324;141913;-61
2021/12/18 00:54:08;;;;;;;10.10;3.40;;;;;;;5.06;65.56;100530.80;212779;1322;139731;-61
2021/12/18 00:59:11;;;;;;;10.90;3.90;;;;;;;5.13;65.69;100528.40;211888;1325;140497;-59
2021/12/18 01:04:15;;;;;;;12.00;3.80;;;;;;;5.22;65.56;100532.11;212384;1322;139639;-60
2021/12/18 01:09:23;;;;;;;8.80;3.50;;;;;;;5.24;65.07;100528.56;212475;1329;139030;-64
2021/12/18 01:14:43;;;;;;;9.10;3.10;;;;;;;5.09;65.24;100530.39;212287;1329;139437;-66
2021/12/18 01:25:09;;;;;;;8.60;3.50;;;;;;;4.95;65.59;100551.90;212419;1328;138920;-58
2021/12/18 01:30:14;;;;;;;9.10;3.90;;;;;;;4.86;65.65;100542.89;212296;1326;138999;-58
2021/12/18 01:35:17;;;;;;;9.40;3.30;;;;;;;4.81;65.69;100531.86;212664;1323;139943;-60
2021/12/18 01:40:22;;;;;;;11.70;3.70;;;;;;;4.85;65.89;100528.82;212387;1323;139663;-57
2021/12/18 01:56:16;;;;;;;9.30;3.00;;;;;;;4.98;66.14;100561.86;212218;1325;139433;-57
2021/12/18 02:01:20;;;;;;;9.50;3.50;;;;;;;4.94;65.85;100574.41;212464;1323;139736;-59
2021/12/18 02:06:24;;;;;;;9.30;3.60;;;;;;;4.91;66.17;100575.50;212745;1320;139900;-62
2021/12/18 02:11:34;;;;;;;10.30;3.30;;;;;;;4.84;65.99;100587.58;212471;1328;141482;-62
2021/12/18 02:22:01;;;;;;;8.00;2.80;;;;;;;4.69;66.11;100566.15;212736;1325;139326;-58
2021/12/18 02:27:04;;;;;;;11.10;3.40;;;;;;;4.63;66.48;100567.63;212340;1322;138784;-60
2021/12/18 02:32:09;;;;;;;9.20;3.30;;;;;;;4.64;66.43;100573.08;212594;1326;139620;-62
2021/12/18 02:37:13;;;;;;;9.00;3.40;;;;;;;4.67;66.57;100564.95;212807;1325;139614;-58
2021/12/18 02:42:21;;;;;;;8.90;3.40;;;;;;;4.70;66.58;100562.62;212385;1326;139725;-57
2021/12/18 02:47:24;;;;;;;8.90;3.70;;;;;;;4.74;66.54;100547.61;212093;1329;139355;-60
2021/12/18 02:52:30;;;;;;;9.60;3.30;;;;;;;4.74;66.57;100544.62;212865;1319;141605;-62
2021/12/18 02:57:33;;;;;;;11.50;3.60;;;;;;;4.71;66.64;100546.25;212069;1326;139854;-61
2021/12/18 03:02:41;;;;;;;8.90;3.70;;;;;;;4.69;66.58;100549.98;212086;1322;139896;-59
2021/12/18 03:07:46;;;;;;;8.80;3.40;;;;;;;4.69;66.77;100555.77;212213;1329;139024;-58
2021/12/18 03:23:41;;;;;;;13.60;4.00;;;;;;;4.65;66.82;100584.14;212493;1322;142267;-61
2021/12/18 03:28:44;;;;;;;8.20;3.70;;;;;;;4.73;66.92;100592.11;212368;1326;139132;-60
2021/12/18 03:33:47;;;;;;;12.80;3.90;;;;;;;4.79;66.70;100591.15;212186;1328;139485;-59
2021/12/18 03:38:50;;;;;;;8.40;3.40;;;;;;;4.83;66.77;100589.15;212669;1322;138977;-59
2021/12/18 03:43:53;;;;;;;10.30;2.90;;;;;;;4.85;66.48;100594.93;212089;1328;138383;-59
2021/12/18 03:48:57;;;;;;;8.70;3.60;;;;;;;4.82;66.44;100591.63;212386;1327;139233;-59
2021/12/18 03:53:59;;;;;;;9.10;3.80;;;;;;;4.81;66.70;100595.88;212274;1328;139034;-60
2021/12/18 03:59:02;;;;;;;8.80;3.80;;;;;;;4.78;66.61;100602.23;212862;1322;139070;-61
2021/12/18 04:04:06;;;;;;;7.80;3.60;;;;;;;4.73;66.57;100603.36;212673;1321;139915;-60
2021/12/18 04:09:11;;;;;;;14.30;4.00;;;;;;;4.73;66.23;100610.04;213086;1326;140432;-61
2021/12/18 04:14:17;;;;;;;7.70;4.00;;;;;;;4.77;66.51;100609.63;212025;1329;139804;-63
2021/12/18 04:19:21;;;;;;;12.50;4.20;;;;;;;4.81;66.44;100599.91;212468;1322;140279;-61
2021/12/18 04:24:24;;;;;;;8.70;3.70;;;;;;;4.86;66.34;100593.34;212654;1322;139490;-59
2021/12/18 04:29:26;;;;;;;8.40;3.50;;;;;;;4.86;66.17;100584.02;212189;1320;139660;-61
2021/12/18 04:34:29;;;;;;;9.20;3.30;;;;;;;4.85;66.27;100581.39;212347;1329;138772;-60
2021/12/18 04:39:33;;;;;;;9.20;3.30;;;;;;;4.83;66.12;100580.20;212560;1327;138611;-61
2021/12/18 04:44:36;;;;;;;8.50;3.40;;;;;;;4.77;66.08;100581.67;212903;1323;139024;-59
2021/12/18 04:49:39;;;;;;;6.60;3.20;;;;;;;4.71;66.04;100590.90;212764;1323;139384;-61
2021/12/18 04:54:44;;;;;;;11.40;4.00;;;;;;;4.70;66.25;100594.09;213107;1322;138446;-60
2021/12/18 04:59:48;;;;;;;10.60;4.30;;;;;;;4.72;66.24;100596.86;211941;1323;139684;-61
2021/12/18 05:04:52;;;;;;;24.10;15.50;;;;;;;4.73;66.52;100596.33;211935;1322;140199;-60
2021/12/18 05:09:56;;;;;;;14.10;7.10;;;;;;;4.81;66.76;100591.83;212613;1321;139209;-64
2021/12/18 05:14:59;;;;;;;13.80;5.60;;;;;;;4.88;66.52;100600.52;212583;1322;139007;-60
2021/12/18 05:20:03;;;;;;;108.20;64.10;;;;;;;4.85;66.33;100605.48;212469;1321;139041;-63
2021/12/18 05:25:07;;;;;;;16.70;7.20;;;;;;;4.84;66.81;100604.27;212869;1322;139275;-60
2021/12/18 05:30:11;;;;;;;14.40;5.70;;;;;;;4.76;66.33;100601.38;212427;1322;139074;-59
2021/12/18 05:35:16;;;;;;;10.90;5.10;;;;;;;4.64;66.32;100597.48;212432;1328;139354;-65
2021/12/18 05:40:23;;;;;;;103.90;62.60;;;;;;;4.56;66.46;100600.23;212338;1322;139762;-59
2021/12/18 05:45:26;;;;;;;11.90;6.30;;;;;;;4.59;66.65;100607.23;212517;1325;140539;-62
2021/12/18 05:50:30;;;;;;;14.30;6.30;;;;;;;4.60;66.90;100606.50;212682;1323;139631;-60
2021/12/18 05:55:34;;;;;;;14.90;6.30;;;;;;;4.55;66.69;100619.75;212913;1322;139517;-60
2021/12/18 06:00:39;;;;;;;16.90;6.30;;;;;;;4.56;66.88;100621.14;212541;1325;139155;-60
2021/12/18 06:05:42;;;;;;;16.50;6.40;;;;;;;4.51;66.66;100622.27;212342;1322;139545;-60
2021/12/18 06:10:45;;;;;;;15.20;6.60;;;;;;;4.44;66.63;100624.45;213103;1321;138897;-66
2021/12/18 06:15:49;;;;;;;14.50;6.00;;;;;;;4.36;66.56;100620.15;212283;1323;139147;-63
2021/12/18 06:20:53;;;;;;;15.40;6.40;;;;;;;4.31;67.05;100618.80;212637;1326;139269;-62
2021/12/18 06:25:56;;;;;;;12.90;5.40;;;;;;;4.31;66.87;100626.89;211988;1325;139565;-64
2021/12/18 06:31:01;;;;;;;13.90;5.50;;;;;;;4.29;66.90;100628.52;212271;1329;139700;-61
2021/12/18 06:36:04;;;;;;;13.70;6.00;;;;;;;4.28;66.77;100616.02;212709;1322;139391;-61
2021/12/18 06:41:07;;;;;;;13.60;5.70;;;;;;;4.24;66.84;100611.85;212860;1326;139538;-62
2021/12/18 06:46:10;;;;;;;15.80;6.60;;;;;;;4.21;67.00;100623.13;212594;1325;139052;-60
2021/12/18 06:51:16;;;;;;;15.00;6.20;;;;;;;4.22;67.17;100631.55;213028;1325;139124;-64
2021/12/18 06:56:19;;;;;;;11.90;5.90;;;;;;;4.21;67.12;100623.30;212772;1322;139218;-60
2021/12/18 07:01:23;;;;;;;13.10;6.60;;;;;;;4.19;67.09;100626.14;212917;1322;142231;-61
2021/12/18 07:06:26;;;;;;;16.10;5.90;;;;;;;4.22;66.99;100618.89;213004;1325;139276;-67
2021/12/18 07:11:29;;;;;;;13.80;6.10;;;;;;;4.25;67.10;100609.38;212392;1326;142380;-64
2021/12/18 07:16:32;;;;;;;15.20;6.40;;;;;;;4.24;67.20;100608.16;213026;1325;138887;-63
2021/12/18 07:21:35;;;;;;;17.20;5.80;;;;;;;4.25;67.01;100609.38;212531;1325;139294;-66
2021/12/18 07:26:38;;;;;;;13.10;6.00;;;;;;;4.24;67.14;100615.18;212012;1329;139532;-61
2021/12/18 07:31:41;;;;;;;11.10;5.40;;;;;;;4.22;67.05;100615.91;212085;1329;139372;-65
2021/12/18 07:36:45;;;;;;;16.10;6.40;;;;;;;4.19;67.15;100607.69;212709;1321;138830;-61
2021/12/18 07:41:48;;;;;;;13.30;6.00;;;;;;;4.14;67.24;100613.36;212011;1325;139020;-64
2021/12/18 07:46:51;;;;;;;16.50;6.20;;;;;;;4.14;67.20;100610.38;212204;1322;139927;-61
2021/12/18 07:51:59;;;;;;;16.60;6.10;;;;;;;4.19;67.33;100611.55;212793;1329;139802;-66
2021/12/18 07:57:03;;;;;;;15.50;6.10;;;;;;;4.28;67.34;100605.14;212446;1325;139552;-62
2021/12/18 08:02:06;;;;;;;16.00;7.50;;;;;;;4.27;67.08;100597.23;212094;1326;139039;-61
2021/12/18 08:07:09;;;;;;;15.20;6.70;;;;;;;4.23;67.26;100601.86;212516;1322;139180;-62
2021/12/18 08:12:12;;;;;;;14.30;7.00;;;;;;;4.23;67.39;100596.91;212728;1322;139923;-62
2021/12/18 08:17:15;;;;;;;12.90;6.80;;;;;;;4.24;67.03;100602.54;212569;1322;138687;-62
2021/12/18 08:22:21;;;;;;;;;;;;;;;4.24;67.46;100610.27;212510;1322;138941;-64
2021/12/18 08:27:24;;;;;;;11.50;5.20;;;;;;;4.28;67.40;100606.54;213323;1323;126603;-66
2021/12/18 08:32:27;;;;;;;12.00;4.90;;;;;;;4.34;67.14;100613.85;211998;1325;139881;-64
2021/12/18 08:37:30;;;;;;;9.90;5.00;;;;;;;4.41;66.93;100612.19;212761;1325;139051;-60
2021/12/18 08:42:33;;;;;;;9.40;4.50;;;;;;;4.45;66.71;100617.93;212298;1322;139128;-61
2021/12/18 08:47:37;;;;;;;9.80;4.20;;;;;;;4.46;66.55;100618.97;212697;1325;138649;-65
2021/12/18 08:52:40;;;;;;;9.00;3.80;;;;;;;4.45;66.14;100617.23;212527;1328;138737;-59
2021/12/18 08:57:44;;;;;;;9.60;3.50;;;;;;;4.43;66.12;100619.19;212082;1328;151248;-63
2021/12/18 09:02:50;;;;;;;7.80;3.50;;;;;;;4.38;65.96;100617.13;212289;1325;138754;-62
2021/12/18 09:07:53;;;;;;;7.70;3.50;;;;;;;4.34;65.55;100613.31;212601;1320;139167;-60
2021/12/18 09:12:57;;;;;;;11.20;4.80;;;;;;;4.31;65.44;100595.27;211894;1331;139069;-61
2021/12/18 09:18:00;;;;;;;10.30;4.50;;;;;;;4.33;65.50;100586.97;213138;1322;141549;-62
2021/12/18 09:23:03;;;;;;;10.60;5.00;;;;;;;4.36;65.40;100584.14;212943;1321;138760;-64
2021/12/18 09:28:06;;;;;;;9.00;4.60;;;;;;;4.40;65.58;100572.84;212391;1324;139824;-63
2021/12/18 09:33:15;;;;;;;11.40;4.50;;;;;;;4.46;65.39;100567.15;212620;1320;139775;-62
2021/12/18 09:38:18;;;;;;;14.80;5.20;;;;;;;4.45;65.05;100568.04;212437;1323;138957;-62
2021/12/18 09:43:22;;;;;;;14.70;5.00;;;;;;;4.47;65.16;100558.88;212581;1322;139761;-61
2021/12/18 09:48:25;;;;;;;11.10;5.20;;;;;;;4.50;65.22;100561.64;212246;1330;139040;-70
2021/12/18 09:53:28;;;;;;;15.30;5.50;;;;;;;4.51;65.01;100564.96;212793;1326;140368;-67
2021/12/18 09:58:32;;;;;;;15.30;6.10;;;;;;;4.53;65.13;100557.55;212166;1326;141147;-61
2021/12/18 10:03:46;;;;;;;12.40;6.80;;;;;;;4.48;64.77;100552.00;212303;1326;138521;-64
2021/12/18 10:08:49;;;;;;;15.90;7.50;;;;;;;4.44;65.14;100528.49;212181;1323;139838;-63
2021/12/18 10:13:58;;;;;;;16.00;7.40;;;;;;;4.45;65.02;100514.08;211900;1328;139304;-62
2021/12/18 10:19:02;;;;;;;18.20;7.50;;;;;;;4.46;64.85;100506.86;212549;1328;139380;-65
2021/12/18 10:24:16;;;;;;;17.30;8.20;;;;;;;4.50;65.05;100510.50;212164;1328;139344;-64
2021/12/18 10:29:45;;;;;;;23.00;9.30;;;;;;;4.50;64.94;100521.57;212739;1323;139828;-61
2021/12/18 10:34:56;;;;;;;18.50;8.50;;;;;;;4.51;65.06;100523.31;211874;1331;138734;-62
2021/12/18 10:40:11;;;;;;;24.10;9.10;;;;;;;4.54;64.80;100517.30;212466;1329;139211;-63
2021/12/18 10:45:21;;;;;;;18.60;8.60;;;;;;;4.50;64.60;100506.29;212698;1321;139312;-60
2021/12/18 10:50:46;;;;;;;17.50;9.30;;;;;;;4.47;64.90;100500.52;212480;1323;139321;-61
2021/12/18 10:55:53;;;;;;;22.40;11.30;;;;;;;4.42;64.78;100495.67;212029;1331;139413;-59
2021/12/18 11:01:00;;;;;;;22.10;9.40;;;;;;;4.38;64.88;100491.86;212038;1329;139534;-58
2021/12/18 11:06:07;;;;;;;20.10;9.20;;;;;;;4.29;64.41;100478.28;212744;1321;138935;-61
2021/12/18 11:16:35;;;;;;;22.20;9.70;;;;;;;4.37;65.19;100457.11;212502;1322;249921;-59
2021/12/18 11:21:42;;;;;;;19.80;9.50;;;;;;;4.40;65.00;100448.61;211719;1332;139373;-63
2021/12/18 11:27:06;;;;;;;20.60;9.60;;;;;;;4.41;65.01;100449.83;211942;1331;140009;-61
2021/12/18 11:32:33;;;;;;;16.20;9.10;;;;;;;4.41;64.92;100450.01;212667;1322;138809;-58
2021/12/18 11:37:42;;;;;;;34.20;15.20;;;;;;;4.44;65.09;100439.61;212469;1320;140534;-60
2021/12/18 11:42:45;;;;;;;26.70;12.20;;;;;;;4.56;64.95;100428.86;212848;1324;139830;-59
2021/12/18 11:47:59;;;;;;;28.80;11.40;;;;;;;4.63;65.01;100425.08;212678;1322;140269;-59
2021/12/18 11:53:14;;;;;;;23.80;11.20;;;;;;;4.64;64.93;100413.98;212434;1326;139497;-54
2021/12/18 11:58:35;;;;;;;25.90;12.10;;;;;;;4.67;64.93;100414.12;212649;1322;139709;-57
2021/12/18 12:03:43;;;;;;;25.70;12.10;;;;;;;4.63;64.54;100405.02;211930;1328;140109;-58
2021/12/18 12:08:51;;;;;;;30.30;12.40;;;;;;;4.64;64.77;100394.83;212201;1327;139671;-58
2021/12/18 12:14:02;;;;;;;28.00;12.60;;;;;;;4.64;64.56;100389.57;211922;1330;140116;-59
2021/12/18 12:19:06;;;;;;;25.10;13.00;;;;;;;4.61;64.70;100377.84;212455;1322;139605;-58
2021/12/18 12:24:11;;;;;;;25.90;12.90;;;;;;;4.61;64.70;100364.46;212668;1321;139375;-60
2021/12/18 12:29:16;;;;;;;45.90;23.10;;;;;;;4.60;64.81;100356.40;211973;1329;139915;-60
2021/12/18 12:34:30;;;;;;;28.20;14.40;;;;;;;4.65;64.89;100348.25;212338;1322;138804;-57
2021/12/18 12:39:54;;;;;;;29.30;13.60;;;;;;;5.51;70.88;100336.52;212119;1322;138794;-61
2021/12/18 12:45:03;;;;;;;28.90;13.00;;;;;;;7.30;69.29;100319.60;212057;1329;139211;-60
2021/12/18 12:50:11;;;;;;;25.30;12.90;;;;;;;6.95;64.77;100328.32;212484;1322;139505;-58
2021/12/18 12:55:19;;;;;;;25.40;13.90;;;;;;;6.25;63.57;100324.61;212480;1326;139451;-58
2021/12/18 13:00:23;;;;;;;28.00;14.20;;;;;;;5.73;63.34;100323.64;212536;1322;139330;-59
2021/12/18 13:05:29;;;;;;;26.90;14.80;;;;;;;5.37;63.72;100316.29;212072;1323;139027;-58
2021/12/18 13:10:36;;;;;;;29.50;15.60;;;;;;;5.08;64.03;100304.02;212602;1321;141996;-60
2021/12/18 13:15:51;;;;;;;25.30;13.10;;;;;;;4.84;64.15;100298.86;212149;1331;139317;-59
2021/12/18 13:21:19;;;;;;;27.80;14.40;;;;;;;4.70;64.58;100307.54;212018;1330;139780;-58
2021/12/18 13:26:28;;;;;;;24.20;14.10;;;;;;;4.58;64.85;100313.38;212168;1327;139197;-58
2021/12/18 13:31:34;;;;;;;44.40;26.30;;;;;;;4.58;64.93;100304.58;212521;1328;139754;-60
2021/12/18 13:36:48;;;;;;;21.80;13.70;;;;;;;4.62;65.27;100302.07;212221;1328;139807;-59
2021/12/18 13:42:10;;;;;;;22.30;13.40;;;;;;;4.55;65.21;100297.08;213526;1322;139326;-58
2021/12/18 13:47:15;;;;;;;21.40;12.40;;;;;;;4.48;65.15;100292.29;213054;1325;139066;-57
2021/12/18 13:52:36;;;;;;;21.10;13.00;;;;;;;4.44;65.46;100285.31;212938;1319;138766;-59
2021/12/18 13:57:39;;;;;;;21.50;12.80;;;;;;;4.41;65.63;100289.23;212659;1322;140272;-60
2021/12/18 14:02:45;;;;;;;25.00;13.80;;;;;;;4.43;65.97;100290.63;213780;1325;139949;-63
2021/12/18 14:07:48;;;;;;;26.40;13.80;;;;;;;4.40;66.02;100285.73;212498;1325;140188;-58
2021/12/18 14:12:51;;;;;;;26.90;13.90;;;;;;;4.38;66.19;100276.81;214256;1322;138811;-62
2021/12/18 14:17:54;;;;;;;28.70;15.20;;;;;;;4.34;66.14;100269.49;213277;1320;140802;-62
2021/12/18 14:23:10;;;;;;;25.50;15.20;;;;;;;4.31;66.55;100272.20;212960;1327;139185;-61
2021/12/18 14:28:19;;;;;;;28.10;14.70;;;;;;;4.28;66.28;100264.86;213904;1325;139366;-60
2021/12/18 14:33:22;;;;;;;27.60;13.80;;;;;;;4.29;66.60;100255.53;212755;1323;139961;-60
2021/12/18 14:38:28;;;;;;;;;;;;;;;4.26;66.56;100241.70;212934;1328;139628;-59
2021/12/18 14:43:31;;;;;;;28.60;14.20;;;;;;;4.22;66.66;100233.52;212212;1332;124936;-59
2021/12/18 14:48:34;;;;;;;36.60;18.30;;;;;;;4.14;66.76;100226.10;213896;1322;138676;-57
2021/12/18 14:53:37;;;;;;;40.50;20.40;;;;;;;4.10;67.02;100236.00;213943;1322;140320;-57
2021/12/18 14:58:40;;;;;;;33.10;21.20;;;;;;;4.06;66.99;100241.34;213341;1325;139382;-61
2021/12/18 15:03:45;;;;;;;51.00;25.90;;;;;;;4.03;67.40;100233.48;214167;1325;138544;-60
2021/12/18 15:08:59;;;;;;;38.40;21.60;;;;;;;4.06;67.42;100217.11;212740;1326;139992;-59
2021/12/18 15:14:10;;;;;;;41.00;21.10;;;;;;;4.04;67.51;100223.80;213119;1323;139625;-61
2021/12/18 15:19:28;;;;;;;38.80;21.70;;;;;;;4.02;67.57;100236.66;212352;1325;139622;-57
2021/12/18 15:24:33;;;;;;;41.10;22.10;;;;;;;3.95;67.84;100226.77;211921;1328;140026;-59
2021/12/18 15:29:39;;;;;;;46.10;23.50;;;;;;;3.85;68.02;100222.88;212777;1329;139351;-58
2021/12/18 15:34:43;;;;;;;42.60;23.10;;;;;;;3.82;68.15;100223.45;212535;1329;140385;-60
2021/12/18 15:39:47;;;;;;;53.10;25.70;;;;;;;3.82;68.68;100205.73;212417;1321;139995;-59
2021/12/18 15:44:50;;;;;;;46.00;25.20;;;;;;;3.79;68.73;100199.80;212651;1328;140104;-58
2021/12/18 15:49:54;;;;;;;44.80;23.20;;;;;;;3.78;68.92;100179.45;212042;1329;140135;-59
2021/12/18 15:54:57;;;;;;;50.30;26.50;;;;;;;3.75;69.21;100168.09;211862;1330;139296;-60
2021/12/18 16:00:00;;;;;;;48.30;25.60;;;;;;;3.74;69.39;100164.42;212410;1323;139333;-62
2021/12/18 16:05:17;;;;;;;47.20;24.80;;;;;;;3.71;69.48;100158.16;212605;1326;142523;-57
2021/12/18 16:10:22;;;;;;;54.10;26.20;;;;;;;3.70;69.74;100144.66;212374;1328;140970;-61
2021/12/18 16:15:25;;;;;;;51.50;26.60;;;;;;;3.67;69.92;100134.71;212139;1328;139431;-59
2021/12/18 16:20:28;;;;;;;46.60;24.90;;;;;;;3.63;69.80;100136.02;212635;1322;139876;-61
2021/12/18 16:25:32;;;;;;;44.40;23.90;;;;;;;3.61;70.24;100135.51;212320;1327;139738;-63
2021/12/18 16:30:35;;;;;;;40.10;24.80;;;;;;;3.56;70.27;100131.55;212364;1329;140501;-61
2021/12/18 16:35:38;;;;;;;42.90;22.60;;;;;;;3.58;70.61;100124.67;212263;1329;139815;-62
2021/12/18 16:40:41;;;;;;;44.30;23.50;;;;;;;3.60;70.71;100125.52;212044;1328;139635;-58
2021/12/18 16:45:45;;;;;;;49.90;26.20;;;;;;;3.60;70.55;100118.33;212701;1328;140975;-59
2021/12/18 16:50:49;;;;;;;45.00;23.80;;;;;;;3.59;70.93;100109.21;212337;1326;139292;-58
2021/12/18 16:55:53;;;;;;;46.80;24.10;;;;;;;3.61;70.91;100100.61;211850;1331;139412;-62
2021/12/18 17:00:58;;;;;;;44.70;25.10;;;;;;;3.61;70.89;100085.52;212355;1328;140759;-61
2021/12/18 17:06:02;;;;;;;44.30;25.60;;;;;;;3.59;71.02;100074.30;212437;1321;139433;-60
2021/12/18 17:11:05;;;;;;;46.30;24.80;;;;;;;3.55;70.89;100084.00;212803;1327;140334;-59
2021/12/18 17:16:10;;;;;;;42.30;21.30;;;;;;;3.60;71.09;100085.52;212198;1326;139962;-59
2021/12/18 17:21:15;;;;;;;45.10;24.10;;;;;;;3.64;71.13;100088.09;212257;1325;139934;-60
2021/12/18 17:26:18;;;;;;;44.80;22.70;;;;;;;3.62;71.21;100079.52;212774;1323;138990;-60
2021/12/18 17:31:25;;;;;;;39.10;21.00;;;;;;;3.62;71.16;100078.83;212308;1329;139074;-62
2021/12/18 17:36:29;;;;;;;39.40;21.00;;;;;;;3.64;71.14;100066.85;212113;1329;139594;-61
2021/12/18 17:41:34;;;;;;;35.40;19.20;;;;;;;3.65;71.28;100055.77;212402;1329;139300;-60
2021/12/18 17:46:38;;;;;;;35.20;19.40;;;;;;;3.65;71.10;100051.04;212692;1324;139446;-60
2021/12/18 17:51:41;;;;;;;38.10;20.90;;;;;;;3.64;71.07;100049.48;212042;1328;139118;-59
2021/12/18 17:56:44;;;;;;;41.70;21.60;;;;;;;3.66;71.20;100045.58;212352;1326;139763;-63
2021/12/18 18:01:48;;;;;;;38.90;19.60;;;;;;;3.70;71.25;100043.23;212008;1325;140100;-60
2021/12/18 18:06:51;;;;;;;36.60;19.30;;;;;;;3.73;71.14;100031.42;212454;1322;139716;-61
2021/12/18 18:11:54;;;;;;;39.70;21.10;;;;;;;3.73;71.01;100018.78;211812;1332;139302;-59
2021/12/18 18:17:00;;;;;;;39.30;20.10;;;;;;;3.75;70.97;100019.29;211961;1324;138894;-63
2021/12/18 18:22:03;;;;;;;39.60;20.50;;;;;;;3.79;71.19;100020.41;212648;1319;141241;-63
2021/12/18 18:27:07;;;;;;;36.80;19.80;;;;;;;3.85;71.09;100026.98;212341;1322;140042;-63
2021/12/18 18:32:11;;;;;;;41.10;20.50;;;;;;;3.90;71.09;100021.63;212320;1325;142470;-62
2021/12/18 18:37:14;;;;;;;42.20;21.70;;;;;;;3.95;70.95;100017.83;212256;1324;139286;-60
2021/12/18 18:42:17;;;;;;;42.50;21.60;;;;;;;4.04;71.11;100003.44;212381;1321;140197;-60
2021/12/18 18:47:25;;;;;;;36.40;20.90;;;;;;;4.12;70.98;99987.65;212187;1329;139227;-59
2021/12/18 18:52:29;;;;;;;41.70;19.70;;;;;;;4.09;70.65;99976.48;212003;1322;140818;-58
2021/12/18 18:57:32;;;;;;;40.30;20.60;;;;;;;4.04;70.67;99966.75;212356;1328;139101;-60
2021/12/18 19:02:35;;;;;;;43.70;23.20;;;;;;;4.03;70.78;99957.65;212026;1328;139140;-59
2021/12/18 19:07:38;;;;;;;34.20;17.00;;;;;;;4.13;71.08;99948.66;212226;1323;139424;-62
2021/12/18 19:12:42;;;;;;;39.10;20.00;;;;;;;4.15;70.65;99943.16;212375;1329;140454;-60
2021/12/18 19:17:47;;;;;;;38.10;21.20;;;;;;;4.16;70.86;99943.85;212112;1324;187001;-61
2021/12/18 19:22:50;;;;;;;43.10;21.10;;;;;;;4.16;70.74;99933.48;212230;1323;139790;-61
2021/12/18 19:27:54;;;;;;;43.50;23.50;;;;;;;4.15;70.94;99933.52;212298;1325;140042;-59
2021/12/18 19:32:58;;;;;;;39.30;21.30;;;;;;;4.21;70.96;99931.45;212413;1325;139677;-64
2021/12/18 19:38:05;;;;;;;43.00;22.90;;;;;;;4.29;71.73;99925.11;212472;1326;141091;-60
2021/12/18 19:43:08;;;;;;;46.20;22.50;;;;;;;4.49;71.59;99917.47;212609;1323;147664;-60
2021/12/18 19:48:11;;;;;;;44.80;22.80;;;;;;;4.41;70.91;99920.63;212404;1322;139545;-64
2021/12/18 19:53:14;;;;;;;42.90;21.90;;;;;;;4.39;70.82;99918.92;212404;1324;139791;-60
2021/12/18 19:58:17;;;;;;;44.60;23.00;;;;;;;4.38;70.81;99921.05;212081;1322;139473;-61
2021/12/18 20:08:23;;;;;;;46.60;21.20;;;;;;;4.41;70.96;99898.49;212086;1329;138725;-60
2021/12/18 20:15:52;;;;;;;49.30;23.80;;;;;;;4.49;71.15;99881.98;208287;1355;636048;-60
2021/12/18 20:20:55;;;;;;;43.60;21.90;;;;;;;4.55;71.10;99869.36;211306;1330;139041;-61
2021/12/18 20:25:58;;;;;;;39.40;22.50;;;;;;;4.57;70.98;99870.20;210700;1326;177766;-61
2021/12/18 20:31:02;;;;;;;45.10;24.50;;;;;;;4.55;70.87;99869.17;211393;1326;138720;-62
2021/12/18 20:36:07;;;;;;;45.00;24.00;;;;;;;4.51;70.86;99855.39;211609;1332;138517;-60
2021/12/18 20:41:11;;;;;;;43.90;22.50;;;;;;;4.47;70.99;99839.67;211891;1330;137842;-60
2021/12/18 20:50:23;;;;;;;45.60;24.80;;;;;;;4.40;71.09;99815.08;207135;1361;658312;-60
2021/12/18 20:55:29;;;;;;;51.50;26.00;;;;;;;4.34;71.32;99809.43;210555;1338;141452;-61
2021/12/18 21:00:34;;;;;;;49.50;25.30;;;;;;;4.32;71.32;99798.59;210585;1336;145073;-61
2021/12/18 21:05:38;;;;;;;44.90;22.50;;;;;;;4.35;71.22;99786.05;210735;1332;139201;-59
2021/12/18 21:10:47;;;;;;;49.70;24.90;;;;;;;4.36;71.61;99784.60;210822;1341;139258;-59
2021/12/18 21:15:50;;;;;;;47.20;24.70;;;;;;;4.36;71.72;99793.40;210688;1339;139101;-59
2021/12/18 21:20:55;;;;;;;48.10;24.60;;;;;;;4.36;71.51;99802.36;210646;1341;138592;-60
2021/12/18 21:25:59;;;;;;;43.90;22.70;;;;;;;4.36;71.42;99793.94;210603;1344;138687;-62
2021/12/18 21:31:04;;;;;;;41.60;23.40;;;;;;;4.34;71.35;99788.00;210899;1337;138662;-63
2021/12/18 21:41:28;;;;;;;53.10;25.10;;;;;;;4.36;71.65;99772.67;210685;1335;139856;-66
2021/12/18 21:46:32;;;;;;;46.00;24.80;;;;;;;4.43;71.68;99778.09;210812;1335;138448;-66
2021/12/18 21:51:37;;;;;;;46.10;25.40;;;;;;;4.50;71.84;99770.17;211040;1334;138260;-64
2021/12/18 21:56:41;;;;;;;52.20;25.40;;;;;;;4.50;71.63;99764.20;210753;1339;138653;-62
2021/12/18 22:01:44;;;;;;;43.90;22.80;;;;;;;4.49;71.67;99752.98;210656;1337;138812;-60
2021/12/18 22:06:48;;;;;;;50.00;26.30;;;;;;;4.46;71.33;99746.23;210701;1339;138688;-64
2021/12/18 22:11:52;;;;;;;46.80;22.80;;;;;;;4.46;71.84;99737.27;210610;1341;138439;-67
2021/12/18 22:16:58;;;;;;;45.20;22.70;;;;;;;4.47;71.76;99726.86;210657;1340;138745;-60
2021/12/18 22:22:05;;;;;;;48.90;25.70;;;;;;;4.43;71.74;99705.19;210994;1333;139917;-61
2021/12/18 22:27:08;;;;;;;51.40;23.50;;;;;;;4.40;72.04;99694.54;210881;1338;138628;-62
2021/12/18 22:32:11;;;;;;;47.80;25.80;;;;;;;4.42;71.98;99695.58;211038;1334;140145;-61
2021/12/18 22:37:16;;;;;;;53.20;25.20;;;;;;;4.43;72.21;99681.81;210616;1338;139169;-61
2021/12/18 22:42:19;;;;;;;50.60;24.60;;;;;;;4.43;72.19;99680.95;210765;1340;139015;-60
2021/12/18 22:47:22;;;;;;;50.50;26.10;;;;;;;4.40;71.99;99670.31;210908;1338;138429;-62
2021/12/18 22:52:26;;;;;;;52.40;27.80;;;;;;;4.45;72.58;99673.51;211125;1335;139310;-61
2021/12/18 22:57:29;;;;;;;51.20;26.40;;;;;;;4.52;72.41;99654.71;211656;1331;139200;-60
2021/12/18 23:02:32;;;;;;;57.20;28.30;;;;;;;4.54;72.54;99646.59;212012;1325;139540;-62
2021/12/18 23:07:36;;;;;;;51.00;25.80;;;;;;;4.52;72.69;99640.65;212077;1328;139051;-62
2021/12/18 23:12:46;;;;;;;52.10;27.00;;;;;;;4.55;72.42;99622.13;212058;1328;138943;-61
2021/12/18 23:23:01;;;;;;;51.20;26.20;;;;;;;4.54;72.71;99589.46;212301;1329;137796;-62
2021/12/18 23:28:08;;;;;;;47.30;26.20;;;;;;;4.58;72.95;99574.96;212124;1329;138606;-62
2021/12/18 23:33:17;;;;;;;52.30;27.90;;;;;;;4.60;73.05;99571.02;212238;1325;138718;-61
2021/12/18 23:38:22;;;;;;;50.00;26.50;;;;;;;4.62;73.07;99565.34;212259;1330;138477;-60
2021/12/18 23:43:52;;;;;;;48.70;26.60;;;;;;;4.63;73.17;99575.84;212467;1329;139048;-66
2021/12/18 23:48:49;;;;;;;44.50;24.70;;;;;;;4.67;73.08;99585.58;212349;1323;138966;-61
2021/12/18 23:53:53;;;;;;;44.20;23.70;;;;;;;4.70;73.16;99583.37;212183;1322;140411;-60
2021/12/18 23:58:57;;;;;;;61.00;33.60;;;;;;;4.79;73.58;99591.03;212409;1326;140557;-61
